createdAt,value
2019-01-14T00:01:29.885Z,2.10
2019-01-14T00:04:00.156Z,1.83
2019-01-14T00:06:30.696Z,1.50
2019-01-14T00:09:01.142Z,1.80
2019-01-14T00:11:31.447Z,1.50
2019-01-14T00:14:01.832Z,1.67
2019-01-14T00:16:32.190Z,1.50
2019-01-14T00:19:02.658Z,1.70
2019-01-14T00:21:33.075Z,1.83
2019-01-14T00:24:03.358Z,1.67
2019-01-14T00:26:34.034Z,1.80
2019-01-14T00:29:04.804Z,1.60
2019-01-14T00:31:35.526Z,1.67
2019-01-14T00:34:06.020Z,1.93
2019-01-14T00:36:37.032Z,1.63
2019-01-14T00:39:08.716Z,1.70
2019-01-14T00:41:39.162Z,1.80
2019-01-14T00:44:09.605Z,1.70
2019-01-14T00:46:39.898Z,1.70
2019-01-14T00:49:10.177Z,1.87
2019-01-14T00:51:40.452Z,1.93
2019-01-14T00:54:10.794Z,1.50
2019-01-14T00:56:41.200Z,1.70
2019-01-14T00:59:12.135Z,1.40
2019-01-14T01:01:42.668Z,1.50
2019-01-14T01:04:12.999Z,1.40
2019-01-14T01:06:43.324Z,1.33
2019-01-14T01:09:13.570Z,1.30
2019-01-14T01:11:43.848Z,1.20
2019-01-14T01:14:14.172Z,1.17
2019-01-14T01:16:44.821Z,1.40
2019-01-14T01:19:15.093Z,1.40
2019-01-14T01:21:45.537Z,1.30
2019-01-14T01:24:15.827Z,1.43
2019-01-14T01:26:46.357Z,1.23
2019-01-14T01:29:16.994Z,1.93
2019-01-14T01:31:47.443Z,1.40
2019-01-14T01:34:17.718Z,1.57
2019-01-14T01:36:48.244Z,1.57
2019-01-14T01:39:18.555Z,1.63
2019-01-14T01:41:48.811Z,1.60
2019-01-14T01:44:19.387Z,1.53
2019-01-14T01:46:50.014Z,1.40
2019-01-14T01:49:20.542Z,1.40
2019-01-14T01:51:50.769Z,1.40
2019-01-14T01:54:21.190Z,1.40
2019-01-14T01:56:51.776Z,1.40
2019-01-14T01:59:22.184Z,1.53
2019-01-14T02:01:52.601Z,1.40
2019-01-14T02:04:22.967Z,1.63
2019-01-14T02:06:53.730Z,1.50
2019-01-14T02:09:24.012Z,1.80
2019-01-14T02:11:54.689Z,1.73
2019-01-14T02:14:25.471Z,1.63
2019-01-14T02:16:56.138Z,1.70
2019-01-14T02:19:26.458Z,1.93
2019-01-14T02:21:56.809Z,1.77
2019-01-14T02:24:27.024Z,1.77
2019-01-14T02:26:57.285Z,2.03
2019-01-14T02:29:27.545Z,1.70
2019-01-14T02:31:57.759Z,2.00
2019-01-14T02:34:28.100Z,1.80
2019-01-14T02:36:58.567Z,1.77
2019-01-14T02:39:28.955Z,2.00
2019-01-14T02:41:59.326Z,1.83
2019-01-14T02:44:29.567Z,1.70
2019-01-14T02:46:59.845Z,1.70
2019-01-14T02:49:30.224Z,2.10
2019-01-14T02:52:00.539Z,1.70
2019-01-14T02:54:30.732Z,1.83
2019-01-14T02:57:01.332Z,2.00
2019-01-14T02:59:31.623Z,1.47
2019-01-14T03:02:02.212Z,1.73
2019-01-14T03:04:35.437Z,1.70
2019-01-14T03:07:06.266Z,1.60
2019-01-14T03:09:36.579Z,1.60
2019-01-14T03:12:06.967Z,1.60
2019-01-14T03:14:37.288Z,1.93
2019-01-14T03:17:07.750Z,1.50
2019-01-14T03:19:38.281Z,1.37
2019-01-14T03:22:08.967Z,1.60
2019-01-14T03:24:39.343Z,1.47
2019-01-14T03:27:09.609Z,1.40
2019-01-14T03:29:40.401Z,1.27
2019-01-14T03:32:11.472Z,1.30
2019-01-14T03:34:41.867Z,1.30
2019-01-14T03:37:12.286Z,1.40
2019-01-14T03:39:42.666Z,1.10
2019-01-14T03:42:13.321Z,1.63
2019-01-14T03:44:44.056Z,1.50
2019-01-14T03:47:14.344Z,1.53
2019-01-14T03:49:45.085Z,1.40
2019-01-14T03:52:15.943Z,1.33
2019-01-14T03:54:46.463Z,1.20
2019-01-14T03:57:16.869Z,1.37
2019-01-14T03:59:47.426Z,1.60
2019-01-14T04:02:17.885Z,1.50
2019-01-14T04:04:48.188Z,1.50
2019-01-14T04:07:18.869Z,1.53
2019-01-14T04:09:49.163Z,1.40
2019-01-14T04:12:19.472Z,2.27
2019-01-14T04:14:49.787Z,1.57
2019-01-14T04:17:20.447Z,1.70
2019-01-14T04:19:50.751Z,1.53
2019-01-14T04:22:20.948Z,1.77
2019-01-14T04:24:51.206Z,1.83
2019-01-14T04:27:21.397Z,2.13
2019-01-14T04:29:51.643Z,1.67
2019-01-14T04:32:21.785Z,1.90
2019-01-14T04:34:52.079Z,1.87
2019-01-14T04:37:22.387Z,2.00
2019-01-14T04:39:52.960Z,1.67
2019-01-14T04:42:23.350Z,1.50
2019-01-14T04:44:53.690Z,1.60
2019-01-14T04:47:23.950Z,1.37
2019-01-14T04:49:54.401Z,1.50
2019-01-14T04:52:24.661Z,1.53
2019-01-14T04:54:55.262Z,1.80
2019-01-14T04:57:25.543Z,1.53
2019-01-14T04:59:55.860Z,1.70
2019-01-14T05:02:26.253Z,2.10
2019-01-14T05:04:56.571Z,1.67
2019-01-14T05:07:29.635Z,1.70
2019-01-14T05:09:59.371Z,2.10
2019-01-14T05:12:29.711Z,2.20
2019-01-14T05:15:00.172Z,2.37
2019-01-14T05:17:30.556Z,2.27
2019-01-14T05:20:00.942Z,2.20
2019-01-14T05:22:31.391Z,2.37
2019-01-14T05:25:01.989Z,2.33
2019-01-14T05:27:32.275Z,2.03
2019-01-14T05:30:02.805Z,2.10
2019-01-14T05:32:33.088Z,1.90
2019-01-14T05:35:03.365Z,2.20
2019-01-14T05:37:37.535Z,1.80
2019-01-14T05:40:11.159Z,1.97
2019-01-14T05:42:41.289Z,2.00
2019-01-14T05:45:12.315Z,1.90
2019-01-14T05:47:42.524Z,2.20
2019-01-14T05:50:13.987Z,2.07
2019-01-14T05:52:44.606Z,2.07
2019-01-14T05:55:15.308Z,2.37
2019-01-14T05:57:46.201Z,1.90
2019-01-14T06:00:34.169Z,1.63
2019-01-14T06:03:04.670Z,2.20
2019-01-14T06:05:35.087Z,1.90
2019-01-14T06:08:05.473Z,2.23
2019-01-14T06:10:35.749Z,1.70
2019-01-14T06:13:06.107Z,2.07
2019-01-14T06:15:37.044Z,1.90
2019-01-14T06:18:07.552Z,2.30
2019-01-14T06:20:37.887Z,2.00
2019-01-14T06:23:08.516Z,1.73
2019-01-14T06:25:38.968Z,2.00
2019-01-14T06:28:09.510Z,1.93
2019-01-14T06:30:40.178Z,2.20
2019-01-14T06:33:10.568Z,2.40
2019-01-14T06:35:41.032Z,2.17
2019-01-14T06:38:11.742Z,2.23
2019-01-14T06:40:42.113Z,2.03
2019-01-14T06:43:12.537Z,2.30
2019-01-14T06:45:42.943Z,2.33
2019-01-14T06:48:13.291Z,1.90
2019-01-14T06:50:43.467Z,1.80
2019-01-14T06:53:14.245Z,1.90
2019-01-14T06:55:45.078Z,1.97
2019-01-14T06:58:15.462Z,2.00
2019-01-14T07:00:45.950Z,2.10
2019-01-14T07:03:16.660Z,2.10
2019-01-14T07:05:47.187Z,2.03
2019-01-14T07:08:17.462Z,2.23
2019-01-14T07:10:47.859Z,2.50
2019-01-14T07:13:18.095Z,2.17
2019-01-14T07:15:48.423Z,2.30
2019-01-14T07:18:18.645Z,2.27
2019-01-14T07:20:49.067Z,2.23
2019-01-14T07:23:19.332Z,2.23
2019-01-14T07:25:49.607Z,2.80
2019-01-14T07:28:19.971Z,2.90
2019-01-14T07:30:50.319Z,2.63
2019-01-14T07:33:20.998Z,2.27
2019-01-14T07:35:51.589Z,1.60
2019-01-14T07:38:21.923Z,1.83
2019-01-14T07:40:52.335Z,2.67
2019-01-14T07:43:22.645Z,2.00
2019-01-14T07:45:53.115Z,1.00
2019-01-14T07:48:23.834Z,1.40
2019-01-14T07:50:54.765Z,1.07
2019-01-14T07:53:25.363Z,2.97
2019-01-14T07:55:55.660Z,1.20
2019-01-14T07:58:26.214Z,1.10
2019-01-14T08:00:56.446Z,0.87
2019-01-14T08:03:27.166Z,0.70
2019-01-14T08:05:57.484Z,0.63
2019-01-14T08:08:28.171Z,0.73
2019-01-14T08:10:58.554Z,0.60
2019-01-14T08:13:28.797Z,0.80
2019-01-14T08:15:59.026Z,0.70
2019-01-14T08:18:29.216Z,0.70
2019-01-14T08:20:59.531Z,0.80
2019-01-14T08:23:29.913Z,0.70
2019-01-14T08:26:00.144Z,0.60
2019-01-14T08:28:30.770Z,1.50
2019-01-14T08:31:01.162Z,1.43
2019-01-14T08:33:31.450Z,1.10
2019-01-14T08:36:01.690Z,1.20
2019-01-14T08:38:31.963Z,0.93
2019-01-14T08:41:02.715Z,1.90
2019-01-14T08:43:35.844Z,0.90
2019-01-14T08:46:07.465Z,1.20
2019-01-14T08:48:37.839Z,1.23
2019-01-14T08:51:08.310Z,2.03
2019-01-14T08:53:38.629Z,1.50
2019-01-14T08:56:09.084Z,1.80
2019-01-14T08:58:39.377Z,1.67
2019-01-14T09:01:09.796Z,1.10
2019-01-14T09:03:40.186Z,1.50
2019-01-14T09:06:10.563Z,1.27
2019-01-14T09:08:40.825Z,1.57
2019-01-14T09:11:11.231Z,1.40
2019-01-14T09:13:41.924Z,1.30
2019-01-14T09:16:12.436Z,1.60
2019-01-14T09:18:42.845Z,1.80
2019-01-14T09:21:13.371Z,1.73
2019-01-14T09:23:43.448Z,1.90
2019-01-14T09:26:13.706Z,1.77
2019-01-14T09:28:44.006Z,1.40
2019-01-14T09:31:14.630Z,1.60
2019-01-14T09:33:45.174Z,1.90
2019-01-14T09:36:15.564Z,2.73
2019-01-14T09:38:46.130Z,2.17
2019-01-14T09:41:16.728Z,1.80
2019-01-14T09:43:46.912Z,2.10
2019-01-14T09:46:17.501Z,1.77
2019-01-14T09:48:47.678Z,1.73
2019-01-14T09:51:18.253Z,2.20
2019-01-14T09:53:48.459Z,1.90
2019-01-14T09:56:18.620Z,1.90
2019-01-14T09:58:48.888Z,1.57
2019-01-14T10:01:19.345Z,1.70
2019-01-14T10:03:49.601Z,1.60
2019-01-14T10:06:19.849Z,1.80
2019-01-14T10:08:49.983Z,1.60
2019-01-14T10:11:20.404Z,1.60
2019-01-14T10:13:50.662Z,1.43
2019-01-14T10:16:20.772Z,1.40
2019-01-14T10:18:51.194Z,1.10
2019-01-14T10:21:21.373Z,1.10
2019-01-14T10:23:51.907Z,1.73
2019-01-14T10:26:22.081Z,1.70
2019-01-14T10:28:52.205Z,1.57
2019-01-14T10:31:22.404Z,1.53
2019-01-14T10:33:52.521Z,2.37
2019-01-14T10:36:23.122Z,1.10
2019-01-14T10:38:53.467Z,1.57
2019-01-14T10:41:24.128Z,1.40
2019-01-14T10:43:54.331Z,1.57
2019-01-14T10:46:24.689Z,1.20
2019-01-14T10:48:55.470Z,0.87
2019-01-14T10:51:25.624Z,0.90
2019-01-14T10:53:55.742Z,0.90
2019-01-14T10:56:25.897Z,1.00
2019-01-14T10:58:56.132Z,1.30
2019-01-14T11:01:26.458Z,1.40
2019-01-14T11:03:57.217Z,1.40
2019-01-14T11:06:27.409Z,1.57
2019-01-14T11:09:05.396Z,1.50
2019-01-14T11:11:29.445Z,1.77
2019-01-14T11:14:00.038Z,1.07
2019-01-14T11:16:30.143Z,1.33
2019-01-14T11:19:00.348Z,1.27
2019-01-14T11:21:30.511Z,1.40
2019-01-14T11:24:00.617Z,1.47
2019-01-14T11:26:30.896Z,1.57
2019-01-14T11:29:01.082Z,1.80
2019-01-14T11:31:31.254Z,1.77
2019-01-14T11:34:01.516Z,1.73
2019-01-14T11:36:32.084Z,1.50
2019-01-14T11:39:05.207Z,1.47
2019-01-14T11:41:35.879Z,1.37
2019-01-14T11:44:06.260Z,1.30
2019-01-14T11:46:36.839Z,1.60
2019-01-14T11:49:08.790Z,1.20
2019-01-14T11:51:39.039Z,1.50
2019-01-14T11:54:09.220Z,1.30
2019-01-14T11:56:39.706Z,1.30
2019-01-14T11:59:09.968Z,1.40
2019-01-14T12:01:40.301Z,1.10
2019-01-14T12:04:10.546Z,1.00
2019-01-14T12:06:40.758Z,2.50
2019-01-14T12:09:13.013Z,1.20
2019-01-14T12:11:43.274Z,1.37
2019-01-14T12:14:13.545Z,1.20
2019-01-14T12:16:43.736Z,1.20
2019-01-14T12:19:13.937Z,1.20
2019-01-14T12:21:44.550Z,1.30
2019-01-14T12:24:14.776Z,1.40
2019-01-14T12:26:45.104Z,1.30
2019-01-14T12:29:15.277Z,1.17
2019-01-14T12:31:45.893Z,1.10
2019-01-14T12:34:16.183Z,0.87
2019-01-14T12:36:46.398Z,1.00
2019-01-14T12:39:19.645Z,0.40
2019-01-14T12:41:51.217Z,0.60
2019-01-14T12:44:20.503Z,0.43
2019-01-14T12:46:51.430Z,0.50
2019-01-14T12:49:21.682Z,0.50
2019-01-14T12:51:52.283Z,0.50
2019-01-14T12:54:22.400Z,0.80
2019-01-14T12:56:52.863Z,0.60
2019-01-14T12:59:23.016Z,0.73
2019-01-14T13:01:53.134Z,0.80
2019-01-14T13:04:23.306Z,1.00
2019-01-14T13:06:53.652Z,0.60
2019-01-14T13:09:26.867Z,0.90
2019-01-14T13:11:56.260Z,0.80
2019-01-14T13:14:26.646Z,0.93
2019-01-14T13:16:56.913Z,1.40
2019-01-14T13:19:27.411Z,1.00
2019-01-14T13:21:58.018Z,1.13
2019-01-14T13:24:28.262Z,0.83
2019-01-14T13:26:58.859Z,1.40
2019-01-14T13:29:28.972Z,1.47
2019-01-14T13:31:59.713Z,1.10
2019-01-14T13:34:29.864Z,1.17
2019-01-14T13:37:00.583Z,1.47
2019-01-14T13:39:34.152Z,1.40
2019-01-14T13:42:03.361Z,1.23
2019-01-14T13:44:33.621Z,1.50
2019-01-14T13:47:04.236Z,1.77
2019-01-14T13:49:34.447Z,0.93
2019-01-14T13:52:04.760Z,1.00
2019-01-14T13:54:35.033Z,1.10
2019-01-14T13:57:05.295Z,1.30
2019-01-14T13:59:35.452Z,1.70
2019-01-14T14:02:06.491Z,1.80
2019-01-14T14:04:36.694Z,1.93
2019-01-14T14:07:06.953Z,1.77
2019-01-14T14:09:41.168Z,1.50
2019-01-14T14:12:09.215Z,1.50
2019-01-14T14:14:39.728Z,1.50
2019-01-14T14:17:10.038Z,1.50
2019-01-14T14:19:40.282Z,1.67
2019-01-14T14:22:11.785Z,1.10
2019-01-14T14:24:42.416Z,1.27
2019-01-14T14:27:12.693Z,1.30
2019-01-14T14:29:42.789Z,1.50
2019-01-14T14:32:13.530Z,1.53
2019-01-14T14:34:43.655Z,1.90
2019-01-14T14:37:13.980Z,1.53
2019-01-14T14:39:48.493Z,1.50
2019-01-14T14:42:16.741Z,1.20
2019-01-14T14:44:47.391Z,1.17
2019-01-14T14:47:17.714Z,1.10
2019-01-14T14:49:47.921Z,1.37
2019-01-14T14:52:18.177Z,1.10
2019-01-14T14:54:48.679Z,1.27
2019-01-14T14:57:18.936Z,1.20
2019-01-14T14:59:49.377Z,1.10
2019-01-14T15:02:19.921Z,1.20
2019-01-14T15:04:50.099Z,1.40
2019-01-14T15:07:20.351Z,1.00
2019-01-14T15:09:55.838Z,1.07
2019-01-14T15:12:22.444Z,0.93
2019-01-14T15:14:52.559Z,1.60
2019-01-14T15:17:22.815Z,1.30
2019-01-14T15:19:53.176Z,1.57
2019-01-14T15:22:22.869Z,1.53
2019-01-14T15:24:52.696Z,1.40
2019-01-14T15:27:22.884Z,1.87
2019-01-14T15:29:53.240Z,1.30
2019-01-14T15:32:23.534Z,1.20
2019-01-14T15:34:53.875Z,1.40
2019-01-14T15:37:24.577Z,2.20
2019-01-14T15:39:54.379Z,1.17
2019-01-14T15:42:24.823Z,2.00
2019-01-14T15:44:55.784Z,1.90
2019-01-14T15:47:25.439Z,1.83
2019-01-14T15:49:55.234Z,2.10
2019-01-14T15:52:25.548Z,1.93
2019-01-14T15:54:55.278Z,1.60
2019-01-14T15:57:25.138Z,1.80
2019-01-14T15:59:55.475Z,1.77
2019-01-14T16:02:25.811Z,1.73
2019-01-14T16:04:56.440Z,2.20
2019-01-14T16:07:26.194Z,2.90
2019-01-14T16:09:56.573Z,1.90
2019-01-14T16:12:26.550Z,1.87
2019-01-14T16:14:56.294Z,2.37
2019-01-14T16:17:27.131Z,2.20
2019-01-14T16:19:57.542Z,2.50
2019-01-14T16:22:27.831Z,3.10
2019-01-14T16:24:58.131Z,2.10
2019-01-14T16:27:28.469Z,2.33
2019-01-14T16:30:01.069Z,2.10
2019-01-14T16:32:30.864Z,2.20
2019-01-14T16:35:00.640Z,2.90
2019-01-14T16:37:30.411Z,2.23
2019-01-14T16:40:00.168Z,2.20
2019-01-14T16:42:30.825Z,1.93
2019-01-14T16:45:00.666Z,2.20
2019-01-14T16:47:30.550Z,2.17
2019-01-14T16:50:00.414Z,3.13
2019-01-14T16:52:30.340Z,2.60
2019-01-14T16:56:00.266Z,2.03
2019-01-14T16:58:31.366Z,1.90
2019-01-14T17:01:01.432Z,1.87
2019-01-14T17:03:31.271Z,1.80
2019-01-14T17:06:01.621Z,2.20
2019-01-14T17:08:31.332Z,2.13
2019-01-14T17:11:01.833Z,5.10
2019-01-14T17:13:32.195Z,4.80
2019-01-14T17:16:02.035Z,2.67
2019-01-14T17:18:31.853Z,1.70
2019-01-14T17:21:01.721Z,1.60
2019-01-14T17:23:32.023Z,1.67
2019-01-14T17:26:02.185Z,1.57
2019-01-14T17:28:31.988Z,2.13
2019-01-14T17:31:01.729Z,1.50
2019-01-14T17:33:31.900Z,1.70
2019-01-14T17:36:01.690Z,1.30
2019-01-14T17:38:32.060Z,1.70
2019-01-14T17:41:01.761Z,1.70
2019-01-14T17:43:32.182Z,1.33
2019-01-14T17:46:02.254Z,1.33
2019-01-14T17:48:32.042Z,1.57
2019-01-14T17:51:01.858Z,1.37
2019-01-14T17:53:32.876Z,1.40
2019-01-14T17:56:02.641Z,1.70
2019-01-14T17:58:32.500Z,1.80
2019-01-14T18:01:02.906Z,2.00
2019-01-14T18:03:32.642Z,2.00
2019-01-14T18:06:03.514Z,2.57
2019-01-14T18:08:33.875Z,1.53
2019-01-14T18:11:03.695Z,1.87
2019-01-14T18:13:33.855Z,1.67
2019-01-14T18:16:04.250Z,1.60
2019-01-14T18:18:34.039Z,1.57
2019-01-14T18:21:06.672Z,1.80
2019-01-14T18:23:36.045Z,1.13
2019-01-14T18:26:05.910Z,1.20
2019-01-14T18:28:36.480Z,1.30
2019-01-14T18:31:06.746Z,1.30
2019-01-14T18:33:36.414Z,1.10
2019-01-14T18:36:06.298Z,1.50
2019-01-14T18:38:36.673Z,1.67
2019-01-14T18:42:36.088Z,1.70
2019-01-14T18:45:07.813Z,1.40
2019-01-14T18:47:37.626Z,1.50
2019-01-14T18:50:09.351Z,1.17
2019-01-14T18:52:39.165Z,1.10
2019-01-14T18:55:09.111Z,1.17
2019-01-14T18:57:39.021Z,1.10
2019-01-14T19:00:12.557Z,1.47
2019-01-14T19:02:43.128Z,1.20
2019-01-14T19:05:13.098Z,1.50
2019-01-14T19:07:43.236Z,1.10
2019-01-14T19:10:13.265Z,1.13
2019-01-14T19:12:43.224Z,1.10
2019-01-14T19:15:15.191Z,1.37
2019-01-14T19:17:45.635Z,1.30
2019-01-14T19:20:28.546Z,1.57
2019-01-14T19:22:58.283Z,1.40
2019-01-14T19:25:28.850Z,1.73
2019-01-14T19:27:58.698Z,1.60
2019-01-14T19:30:28.488Z,1.60
2019-01-14T19:32:58.261Z,1.60
2019-01-14T19:35:28.094Z,2.00
2019-01-14T19:37:57.908Z,1.83
2019-01-14T19:40:28.787Z,2.20
2019-01-14T19:42:58.657Z,2.20
2019-01-14T19:45:28.541Z,2.00
2019-01-14T19:47:58.368Z,2.07
2019-01-14T19:50:28.163Z,2.10
2019-01-14T19:52:58.033Z,2.47
2019-01-14T19:55:27.889Z,2.33
2019-01-14T19:57:58.291Z,2.10
2019-01-14T20:00:31.115Z,2.07
2019-01-14T20:03:00.924Z,2.47
2019-01-14T20:05:30.722Z,2.40
2019-01-14T20:08:01.215Z,2.10
2019-01-14T20:10:32.291Z,1.13
2019-01-14T20:13:06.013Z,1.50
2019-01-14T20:15:39.173Z,1.40
2019-01-14T20:18:18.624Z,1.37
2019-01-14T20:20:53.810Z,1.23
2019-01-14T20:23:24.884Z,1.30
2019-01-14T20:25:59.089Z,1.30
2019-01-14T20:28:30.823Z,1.10
2019-01-14T20:31:04.198Z,1.10
2019-01-14T20:33:38.171Z,1.17
2019-01-14T20:36:08.545Z,1.30
2019-01-14T20:38:38.381Z,0.90
2019-01-14T20:41:08.720Z,1.30
2019-01-14T20:43:39.072Z,1.27
2019-01-14T20:46:08.917Z,0.90
2019-01-14T20:48:38.781Z,1.47
2019-01-14T20:51:08.922Z,1.40
2019-01-14T20:53:39.219Z,1.20
2019-01-14T20:56:09.061Z,1.50
2019-01-14T20:58:39.367Z,1.83
2019-01-14T21:01:09.241Z,1.13
2019-01-14T21:03:39.085Z,1.40
2019-01-14T21:06:08.956Z,0.83
2019-01-14T21:08:39.284Z,0.80
2019-01-14T21:11:09.939Z,0.90
2019-01-14T21:13:40.064Z,0.93
2019-01-14T21:16:10.208Z,1.10
2019-01-14T21:18:39.927Z,0.70
2019-01-14T21:21:09.836Z,1.30
2019-01-14T21:23:39.578Z,1.20
2019-01-14T21:26:09.425Z,1.20
2019-01-14T21:28:39.271Z,1.30
2019-01-14T21:31:09.100Z,1.10
2019-01-14T21:33:38.880Z,1.10
2019-01-14T21:36:08.770Z,1.30
2019-01-14T21:38:38.574Z,1.10
2019-01-14T21:41:08.914Z,1.20
2019-01-14T21:43:38.972Z,1.20
2019-01-14T21:46:08.875Z,1.13
2019-01-14T21:48:39.259Z,1.57
2019-01-14T21:51:09.029Z,1.10
2019-01-14T21:53:39.326Z,1.20
2019-01-14T21:56:09.235Z,1.27
2019-01-14T21:58:40.083Z,1.00
2019-01-14T22:01:09.924Z,1.27
2019-01-14T22:03:39.697Z,0.97
2019-01-14T22:06:09.558Z,0.80
2019-01-14T22:08:39.198Z,0.97
2019-01-14T22:11:08.957Z,1.03
2019-01-14T22:13:38.821Z,1.10
2019-01-14T22:16:08.557Z,1.37
2019-01-14T22:18:38.281Z,1.40
2019-01-14T22:21:08.858Z,1.10
2019-01-14T22:23:38.546Z,1.60
2019-01-14T22:26:08.394Z,1.77
2019-01-14T22:28:38.241Z,1.70
2019-01-14T22:31:08.246Z,1.10
2019-01-14T22:33:38.358Z,1.40
2019-01-14T22:36:08.206Z,1.10
2019-01-14T22:38:38.050Z,0.90
2019-01-14T22:41:07.789Z,1.33
2019-01-14T22:43:37.673Z,1.23
2019-01-14T22:46:08.089Z,0.97
2019-01-14T22:48:37.861Z,1.20
2019-01-14T22:51:08.150Z,1.10
2019-01-14T22:53:38.034Z,1.00
2019-01-14T22:56:08.424Z,1.13
2019-01-14T22:58:38.221Z,1.07
2019-01-14T23:01:45.302Z,1.37
2019-01-14T23:04:15.118Z,1.43
2019-01-14T23:06:45.521Z,1.47
2019-01-14T23:09:15.834Z,1.47
2019-01-14T23:11:52.849Z,1.67
2019-01-14T23:14:26.270Z,0.93
2019-01-14T23:16:56.678Z,1.27
2019-01-14T23:19:27.020Z,1.03
2019-01-14T23:21:56.733Z,1.23
2019-01-14T23:24:27.869Z,1.57
2019-01-14T23:26:59.040Z,1.50
2019-01-14T23:29:29.534Z,1.47
2019-01-14T23:32:00.638Z,1.97
2019-01-14T23:34:31.212Z,1.43
2019-01-14T23:37:01.612Z,1.63
2019-01-14T23:39:31.449Z,2.20
2019-01-14T23:42:01.268Z,2.13
2019-01-14T23:44:31.073Z,2.17
2019-01-14T23:47:00.946Z,2.00
2019-01-14T23:49:31.073Z,2.10
2019-01-14T23:52:01.492Z,2.20
2019-01-14T23:54:36.996Z,2.00
2019-01-14T23:57:03.067Z,2.57
2019-01-14T23:59:33.437Z,2.20
